Aegean Viii — SXKO — position and weather

sailwx.info

Track history (hours):
 
Tides and Currents Weather Stations Pressure Air Temp Water Temp Dewpoint Dewpoint Depression Visibility Wind Speed Wind Dir Waves Ship Positions

Aegean Viii

Last reported at 2016-Jul-25 19:33 UTC. Time now 2016-Jul-25 20:10 UTC.
Position N 38°02' E 023°36'.

Length 75 m; draft 3.8 m.

Type: Tanker. MMSI: 240732000.

Date/timePositionNaut miles runAvg speedWind from/ knotsBaromVisibWave heightAir tempDewpointWater temp
2016-Jul-25 19:33N 38°02' E 023°36'0 0.0
2016-Jul-25 18:34N 38°02' E 023°36'0 0.0
2016-Jul-25 17:33N 38°02' E 023°36'0 0.0
2016-Jul-25 16:33N 38°02' E 023°36'1 0.7
2016-Jul-25 15:34N 38°02' E 023°35'0 0.0
2016-Jul-25 14:34N 38°02' E 023°35'0 0.0
2016-Jul-25 13:33N 38°02' E 023°35'0 0.5
2016-Jul-25 12:33N 38°02' E 023°35'0 0.0
2016-Jul-25 11:33N 38°02' E 023°35'0 0.0
2016-Jul-25 10:33N 38°02' E 023°35'0 0.0
2016-Jul-25 09:33N 38°02' E 023°35'1 0.7
2016-Jul-25 08:33N 38°02' E 023°35'2 2.1
2016-Jul-25 07:33N 38°02' E 023°32'0 0.0
2016-Jul-25 06:33N 38°02' E 023°32'0 0.0
2016-Jul-25 05:33N 38°02' E 023°32'  
2016-Jul-22 23:34N 38°02' E 023°32'6 5.8
2016-Jul-22 22:33N 37°59' E 023°25'7 7.0
2016-Jul-22 21:33N 37°52' E 023°25'10 9.7
2016-Jul-22 20:33N 37°56' E 023°37'1 0.7
2016-Jul-22 19:33N 37°56' E 023°37'0 0.0
2016-Jul-22 18:33N 37°56' E 023°37'0 0.0
2016-Jul-22 17:33N 37°56' E 023°37'1 1.4
2016-Jul-22 16:33N 37°57' E 023°36'5 5.0
2016-Jul-22 15:33N 38°02' E 023°36'0 0.0
2016-Jul-22 14:33N 38°02' E 023°36'0 0.0
2016-Jul-22 13:33N 38°02' E 023°36'1 0.6
2016-Jul-22 12:33N 38°01' E 023°35'4 4.1
2016-Jul-22 11:33N 37°57' E 023°34'4 3.5
2016-Jul-22 10:33N 37°56' E 023°38'0 0.0
2016-Jul-22 09:33N 37°56' E 023°38'0 0.0
2016-Jul-22 08:33N 37°56' E 023°38'0 0.0
2016-Jul-22 07:33N 37°56' E 023°38'1 0.6
2016-Jul-22 05:33N 37°56' E 023°37'4 4.3
2016-Jul-22 04:33N 37°59' E 023°33'3 3.3
2016-Jul-22 03:33N 38°02' E 023°32'0 0.0
2016-Jul-22 02:33N 38°02' E 023°32'0 0.0
2016-Jul-21 13:06N 38°02' E 023°32'0 0.0
2016-Jul-21 12:33N 38°02' E 023°32'0 0.0
2016-Jul-21 11:33N 38°02' E 023°32'0 0.0
2016-Jul-21 10:33N 38°02' E 023°32'0 0.0
2016-Jul-21 09:34N 38°02' E 023°32'0 0.0
2016-Jul-21 08:33N 38°02' E 023°32'0 0.0
2016-Jul-21 07:33N 38°02' E 023°32'0 0.0
2016-Jul-21 06:33N 38°02' E 023°32'0 0.0
2016-Jul-21 05:33N 38°02' E 023°32'0 0.0
2016-Jul-20 11:19N 38°02' E 023°32'0 0.0
2016-Jul-20 10:34N 38°02' E 023°32'1 1.0
2016-Jul-20 09:33N 38°02' E 023°31'0 0.1
2016-Jul-20 08:33N 38°02' E 023°31'0 0.0
2016-Jul-20 07:33N 38°02' E 023°31'0 0.0
2016-Jul-20 06:34N 38°02' E 023°31'0 0.0
2016-Jul-20 05:33N 38°02' E 023°31'1 0.6
2016-Jul-20 04:33N 38°02' E 023°31'1 1.1
2016-Jul-20 03:33N 38°02' E 023°32'0 0.0
2016-Jul-19 17:33N 38°02' E 023°32'4 3.5
2016-Jul-19 16:34N 37°59' E 023°33'4 4.3
2016-Jul-19 15:33N 37°56' E 023°38'0 0.0
2016-Jul-19 14:33N 37°56' E 023°38'0 0.0
2016-Jul-19 13:33N 37°56' E 023°38'0 0.0
2016-Jul-19 12:33N 37°56' E 023°38'3 2.9
2016-Jul-19 11:33N 37°57' E 023°34'5 5.3
2016-Jul-19 10:33N 38°02' E 023°32'2 2.2
2016-Jul-19 09:33N 38°02' E 023°35'0 0.5
2016-Jul-19 08:33N 38°02' E 023°35'0 0.0
2016-Jul-19 07:33N 38°02' E 023°35'2 0.6
2016-Jul-19 04:34N 38°02' E 023°33'1 1.0
2016-Jul-19 03:33N 38°02' E 023°32'0 0.0
2016-Jul-18 12:32N 38°02' E 023°32'0 0.0
2016-Jul-18 11:34N 38°02' E 023°32'0 0.0
2016-Jul-18 10:34N 38°02' E 023°32'0 0.0
2016-Jul-18 09:33N 38°02' E 023°32'0 0.0
2016-Jul-18 08:34N 38°02' E 023°32'0 0.0
2016-Jul-18 07:34N 38°02' E 023°32'0 0.0
2016-Jul-18 06:34N 38°02' E 023°32'0 0.0
2016-Jul-18 05:34N 38°02' E 023°32'0 0.0
2016-Jul-18 04:33N 38°02' E 023°32'0 0.0
2016-Jul-18 03:34N 38°02' E 023°32'0 0.0
2016-Jul-18 02:34N 38°02' E 023°32'0 0.0
2016-Jul-18 01:34N 38°02' E 023°32'0 0.0
2016-Jul-18 00:34N 38°02' E 023°32'0 0.1
2016-Jul-17 23:34N 38°02' E 023°32'7 7.0
2016-Jul-17 22:33N 37°58' E 023°25'1010.0
2016-Jul-17 21:33N 37°55' E 023°13'10 9.7
2016-Jul-17 20:33N 37°55' E 023°01'12 5.3
2016-Jul-17 18:16N 38°02' E 022°48'810.7
2016-Jul-17 17:31N 38°06' E 022°39'1010.8
2016-Jul-17 16:33N 38°11' E 022°27'  
Track history (hours):
 
Tides and Currents Weather Stations Pressure Air Temp Water Temp Dewpoint Dewpoint Depression Visibility Wind Speed Wind Dir Waves Ship Positions

Aegean Viii

Last reported at 2016-Jul-25 19:33 UTC. Time now 2016-Jul-25 20:10 UTC.
Position N 38°02' E 023°36'.

Length 75 m; draft 3.8 m.

Type: Tanker. MMSI: 240732000.

Date/timePositionNaut miles runAvg speedWind from/ knotsBaromVisibWave heightAir tempDewpointWater temp
2016-Jul-25 19:33N 38°02' E 023°36'0 0.0
2016-Jul-25 18:34N 38°02' E 023°36'0 0.0
2016-Jul-25 17:33N 38°02' E 023°36'0 0.0
2016-Jul-25 16:33N 38°02' E 023°36'1 0.7
2016-Jul-25 15:34N 38°02' E 023°35'0 0.0
2016-Jul-25 14:34N 38°02' E 023°35'0 0.0
2016-Jul-25 13:33N 38°02' E 023°35'0 0.5
2016-Jul-25 12:33N 38°02' E 023°35'0 0.0
2016-Jul-25 11:33N 38°02' E 023°35'0 0.0
2016-Jul-25 10:33N 38°02' E 023°35'0 0.0
2016-Jul-25 09:33N 38°02' E 023°35'1 0.7
2016-Jul-25 08:33N 38°02' E 023°35'2 2.1
2016-Jul-25 07:33N 38°02' E 023°32'0 0.0
2016-Jul-25 06:33N 38°02' E 023°32'0 0.0
2016-Jul-25 05:33N 38°02' E 023°32'  
2016-Jul-22 23:34N 38°02' E 023°32'6 5.8
2016-Jul-22 22:33N 37°59' E 023°25'7 7.0
2016-Jul-22 21:33N 37°52' E 023°25'10 9.7
2016-Jul-22 20:33N 37°56' E 023°37'1 0.7
2016-Jul-22 19:33N 37°56' E 023°37'0 0.0
2016-Jul-22 18:33N 37°56' E 023°37'0 0.0
2016-Jul-22 17:33N 37°56' E 023°37'1 1.4
2016-Jul-22 16:33N 37°57' E 023°36'5 5.0
2016-Jul-22 15:33N 38°02' E 023°36'0 0.0
2016-Jul-22 14:33N 38°02' E 023°36'0 0.0
2016-Jul-22 13:33N 38°02' E 023°36'1 0.6
2016-Jul-22 12:33N 38°01' E 023°35'4 4.1
2016-Jul-22 11:33N 37°57' E 023°34'4 3.5
2016-Jul-22 10:33N 37°56' E 023°38'0 0.0
2016-Jul-22 09:33N 37°56' E 023°38'0 0.0
2016-Jul-22 08:33N 37°56' E 023°38'0 0.0
2016-Jul-22 07:33N 37°56' E 023°38'1 0.6
2016-Jul-22 05:33N 37°56' E 023°37'4 4.3
2016-Jul-22 04:33N 37°59' E 023°33'3 3.3
2016-Jul-22 03:33N 38°02' E 023°32'0 0.0
2016-Jul-22 02:33N 38°02' E 023°32'0 0.0
2016-Jul-21 13:06N 38°02' E 023°32'0 0.0
2016-Jul-21 12:33N 38°02' E 023°32'0 0.0
2016-Jul-21 11:33N 38°02' E 023°32'0 0.0
2016-Jul-21 10:33N 38°02' E 023°32'0 0.0
2016-Jul-21 09:34N 38°02' E 023°32'0 0.0
2016-Jul-21 08:33N 38°02' E 023°32'0 0.0
2016-Jul-21 07:33N 38°02' E 023°32'0 0.0
2016-Jul-21 06:33N 38°02' E 023°32'0 0.0
2016-Jul-21 05:33N 38°02' E 023°32'0 0.0
2016-Jul-20 11:19N 38°02' E 023°32'0 0.0
2016-Jul-20 10:34N 38°02' E 023°32'1 1.0
2016-Jul-20 09:33N 38°02' E 023°31'0 0.1
2016-Jul-20 08:33N 38°02' E 023°31'0 0.0
2016-Jul-20 07:33N 38°02' E 023°31'0 0.0
2016-Jul-20 06:34N 38°02' E 023°31'0 0.0
2016-Jul-20 05:33N 38°02' E 023°31'1 0.6
2016-Jul-20 04:33N 38°02' E 023°31'1 1.1
2016-Jul-20 03:33N 38°02' E 023°32'0 0.0
2016-Jul-19 17:33N 38°02' E 023°32'4 3.5
2016-Jul-19 16:34N 37°59' E 023°33'4 4.3
2016-Jul-19 15:33N 37°56' E 023°38'0 0.0
2016-Jul-19 14:33N 37°56' E 023°38'0 0.0
2016-Jul-19 13:33N 37°56' E 023°38'0 0.0
2016-Jul-19 12:33N 37°56' E 023°38'3 2.9
2016-Jul-19 11:33N 37°57' E 023°34'5 5.3
2016-Jul-19 10:33N 38°02' E 023°32'2 2.2
2016-Jul-19 09:33N 38°02' E 023°35'0 0.5
2016-Jul-19 08:33N 38°02' E 023°35'0 0.0
2016-Jul-19 07:33N 38°02' E 023°35'2 0.6
2016-Jul-19 04:34N 38°02' E 023°33'1 1.0
2016-Jul-19 03:33N 38°02' E 023°32'0 0.0
2016-Jul-18 12:32N 38°02' E 023°32'0 0.0
2016-Jul-18 11:34N 38°02' E 023°32'0 0.0
2016-Jul-18 10:34N 38°02' E 023°32'0 0.0
2016-Jul-18 09:33N 38°02' E 023°32'0 0.0
2016-Jul-18 08:34N 38°02' E 023°32'0 0.0
2016-Jul-18 07:34N 38°02' E 023°32'0 0.0
2016-Jul-18 06:34N 38°02' E 023°32'0 0.0
2016-Jul-18 05:34N 38°02' E 023°32'0 0.0
2016-Jul-18 04:33N 38°02' E 023°32'0 0.0
2016-Jul-18 03:34N 38°02' E 023°32'0 0.0
2016-Jul-18 02:34N 38°02' E 023°32'0 0.0
2016-Jul-18 01:34N 38°02' E 023°32'0 0.0
2016-Jul-18 00:34N 38°02' E 023°32'0 0.1
2016-Jul-17 23:34N 38°02' E 023°32'7 7.0
2016-Jul-17 22:33N 37°58' E 023°25'1010.0
2016-Jul-17 21:33N 37°55' E 023°13'10 9.7
2016-Jul-17 20:33N 37°55' E 023°01'12 5.3
2016-Jul-17 18:16N 38°02' E 022°48'810.7
2016-Jul-17 17:31N 38°06' E 022°39'1010.8
2016-Jul-17 16:33N 38°11' E 022°27'  

Dump ship's entire track history